• Join FlightAware (Why Join?)
  • Login
  • US Flag 
07:13PM EDT


 

Airport Tracker/Info


-or-


 

Live Flight TrackerFlight Track Log ✈ UAL5868 ✈ 08-May-2013 ✈ KORD - KFAR

Flight Track Log - Related Links

Times and Time Zones

All times are in EDT time to prevent confusion due to time zone crossing. See the UAL5868 flight status page for this flight to view local times or setup timezone preferences in your user account.

Time Position Orientation Groundspeed Altitude Reporting Facility
EDT Latitude Longitude Course Direction KTS MPH feet Rate Location/Type
11:08PM 42.0167 -87.8667 346° North 185 213 3,000  Level Chicago TRACON
11:09PM 42.0667 -87.7833 51° Northeast 258 297 4,500 960 Climbing Chicago TRACON
11:10PM 42.1333 -87.7667 11° North 257 296 5,100 600 Climbing Chicago TRACON
11:11PM 42.1600 -87.7661 North 255 293 5,500 1,140 Climbing Chicago Center
11:12PM 42.2314 -87.7689 358° North 255 293 7,000 2,040 Climbing Chicago Center
11:13PM 42.3047 -87.7703 359° North 264 304 9,700 2,400 Climbing Chicago Center
11:14PM 42.5576 -88.0969 346° North  Level FlightAware Approximate
11:14PM 42.3922 -87.7756 357° North 282 325 12,000  Level Chicago Center
11:15PM 42.4783 -87.7800 358° North 304 350 14,400 1,860 Climbing Chicago Center
11:16PM 42.5622 -87.8103 345° North 329 379 15,800 1,140 Climbing Chicago Center
11:17PM 42.6444 -87.8822 327° Northwest 349 402 16,800 900 Climbing Chicago Center
11:18PM 42.7317 -87.9544 329° Northwest 363 418 17,700 840 Climbing Chicago Center
11:19PM 42.8231 -88.0353 327° Northwest 384 442 18,600 960 Climbing Chicago Center
11:20PM 42.9322 -88.1306 327° Northwest 398 458 19,700 1,020 Climbing Chicago Center
11:21PM 42.9836 -88.2694 297° West 407 468 20,700 900 Climbing Chicago Center
11:22PM 43.0278 -88.4131 293° West 406 467 21,600 900 Climbing Chicago Center
11:23PM 43.0719 -88.5597 292° West 412 474 22,600 900 Climbing Chicago Center
11:24PM 43.1175 -88.7067 293° West 416 479 23,500 900 Climbing Chicago Center
11:25PM 43.1614 -88.8536 292° West 414 476 24,500 900 Climbing Chicago Center
11:26PM 43.2061 -89.0003 293° West 416 479 25,400 1,080 Climbing Chicago Center
11:27PM 43.2494 -89.1436 293° West 406 467 26,800 1,320 Climbing Chicago Center
11:28PM 43.2906 -89.2833 292° West 395 455 28,200 1,380 Climbing Chicago Center
11:29PM 43.3311 -89.4186 292° West 385 443 29,700 1,380 Climbing Chicago Center
11:30PM 43.3800 -89.5456 298° West 378 435 31,100 1,140 Climbing Chicago Center
11:31PM 43.4439 -89.6639 307° West 385 443 32,100 900 Climbing Chicago Center
11:32PM 43.5103 -89.7869 307° West 395 455 33,000 900 Climbing Chicago Center
11:33PM 43.5692 -89.8903 308° West 402 463 33,800 960 Climbing Minneapolis Center
11:34PM 43.6372 -90.0158 307° West 406 467 34,800 900 Climbing Minneapolis Center
11:35PM 43.7056 -90.1419 307° West 409 471 35,700 540 Climbing Minneapolis Center
11:36PM 43.7856 -90.2906 307° West 413 475 36,000 120 Climbing Minneapolis Center
11:37PM 43.8322 -90.3778 307° West 419 482 36,000  Level Minneapolis Center
11:38PM 43.9256 -90.5531 307° West 423 487 36,000  Level Minneapolis Center
11:39PM 43.9903 -90.6733 307° West 428 493 36,000  Level Minneapolis Center
11:40PM 44.0453 -90.7781 306° West 427 491 36,000  Level Minneapolis Center
11:41PM 44.1292 -90.9336 307° West 423 487 36,000  Level Minneapolis Center
11:42PM 44.2100 -91.0889 306° West 418 481 36,000  Level Minneapolis Center
11:43PM 44.2772 -91.2183 306° West 417 480 36,000  Level Minneapolis Center
11:44PM 44.3442 -91.3492 306° West 420 483 36,000  Level Minneapolis Center
11:45PM 44.4103 -91.4828 305° West 420 483 36,000  Level Minneapolis Center
11:46PM 44.4781 -91.6172 305° West 422 486 36,000  Level Minneapolis Center
11:47PM 44.5500 -91.7506 307° West 427 491 36,000  Level Minneapolis Center
11:48PM 44.6186 -91.8856 306° West 428 493 36,000  Level Minneapolis Center
11:49PM 44.6894 -92.0214 306° West 431 496 36,000  Level Minneapolis Center
11:50PM 44.7714 -92.1833 306° West 430 495 36,000  Level Minneapolis Center
11:51PM 44.8392 -92.3197 305° West 429 494 36,000  Level Minneapolis Center
11:52PM 44.9067 -92.4561 305° West 429 494 36,000  Level Minneapolis Center
11:53PM 44.9728 -92.5897 305° West 422 486 36,000  Level Minneapolis Center
11:54PM 45.0392 -92.7225 305° West 419 482 36,000  Level Minneapolis Center
11:55PM 45.1050 -92.8567 305° West 420 483 36,000  Level Minneapolis Center
11:56PM 45.1708 -92.9908 305° West 420 483 36,000  Level Minneapolis Center
11:58PM 45.2369 -93.1267 305° West 423 487 36,000  Level Minneapolis Center
11:59PM 45.3031 -93.2628 305° West 423 487 36,000  Level Minneapolis Center
12:00AM 45.3828 -93.4272 305° West 424 488 36,000  Level Minneapolis Center
12:01AM 45.4483 -93.5658 304° West 425 489 36,000  Level Minneapolis Center
12:02AM 45.5142 -93.7022 305° West 423 487 36,000  Level Minneapolis Center
12:03AM 45.5783 -93.8369 304° West 416 479 36,000  Level Minneapolis Center
12:04AM 45.6425 -93.9717 304° West 412 474 36,000  Level Minneapolis Center
12:05AM 45.7050 -94.1044 304° West 407 468 36,000  Level Minneapolis Center
12:06AM 45.7675 -94.2386 304° West 407 468 36,000  Level Minneapolis Center
12:07AM 45.8297 -94.3700 304° West 402 463 36,000  Level Minneapolis Center
12:08AM 45.9033 -94.5306 303° West 403 464 36,000  Level Minneapolis Center
12:09AM 45.9642 -94.6633 303° West 401 461 36,000  Level Minneapolis Center
12:10AM 46.0256 -94.7947 304° West 398 458 36,000  Level Minneapolis Center
12:11AM 46.0858 -94.9261 304° West 397 457 36,000 -840 Level Minneapolis Center
12:12AM 46.1331 -95.0308 303° West 394 453 34,400 -2,640 Descending Minneapolis Center
12:13AM 46.1989 -95.1778 303° West 395 455 30,700 -3,120 Descending Minneapolis Center
12:14AM 46.2636 -95.3194 303° West 416 479 28,100 -2,580 Descending Minneapolis Center
12:15AM 46.3317 -95.4717 303° West 433 498 25,600 -2,580 Descending Minneapolis Center
12:16AM 46.3989 -95.6219 303° West 443 510 22,900 -2,820 Descending Minneapolis Center
12:17AM 46.4656 -95.7731 303° West 437 503 19,900 -3,060 Descending Minneapolis Center
12:18AM 46.5364 -95.9325 303° West 399 459 16,800 -2,880 Descending Minneapolis Center
12:19AM 46.5936 -96.0631 303° West 398 458 14,100 -2,340 Descending Minneapolis Center
12:20AM 46.6517 -96.1950 303° West 375 432 12,100 -1,680 Descending Minneapolis Center
12:21AM 46.6983 -96.3022 302° West 322 371 10,800 -2,040 Descending Minneapolis Center
12:22AM 46.7425 -96.4014 303° West 282 325 8,100 -2,820 Descending Minneapolis Center
12:23AM 46.7844 -96.4947 303° West 284 327 5,200 -2,460 Descending Minneapolis Center
12:24AM 46.8189 -96.5922 297° West 267 307 3,200 -1,140 Descending Minneapolis Center
12:25AM 46.8181 -96.6989 269° West 253 291 3,000 -120 Descending Minneapolis Center
12:26AM 46.8175 -96.7728 269° West 219 252 3,000 -540 Level Minneapolis Center
12:27AM 46.8603 -96.8181 324° Northwest 148 170 2,000 -840 Descending Minneapolis Center
12:28AM 46.8900 -96.8164 North 114 131 1,300 -720 Descending Minneapolis Center